createdAt,value
2018-01-23T00:00:33.964Z,0
2018-01-23T00:01:43.988Z,0
2018-01-23T00:02:53.955Z,0
2018-01-23T00:04:03.400Z,0
2018-01-23T00:05:13.371Z,0
2018-01-23T00:06:23.349Z,0
2018-01-23T00:07:33.317Z,0
2018-01-23T00:08:42.761Z,0
2018-01-23T00:09:52.735Z,0
2018-01-23T00:11:02.446Z,0
2018-01-23T00:12:12.423Z,0
2018-01-23T00:13:22.504Z,0
2018-01-23T00:14:32.215Z,0
2018-01-23T00:15:42.195Z,0
2018-01-23T00:16:51.682Z,0
2018-01-23T00:18:01.653Z,0
2018-01-23T00:19:11.095Z,0
2018-01-23T00:20:21.066Z,0
2018-01-23T00:21:30.505Z,0
2018-01-23T00:22:40.208Z,0
2018-01-23T00:23:50.175Z,0
2018-01-23T00:24:59.617Z,0
2018-01-23T00:26:09.588Z,0
2018-01-23T00:27:19.292Z,0
2018-01-23T00:28:29.266Z,0
2018-01-23T00:29:39.245Z,0
2018-01-23T00:30:49.055Z,0
2018-01-23T00:31:59.023Z,0
2018-01-23T00:33:08.468Z,0
2018-01-23T00:34:18.439Z,0
2018-01-23T00:35:28.416Z,0
2018-01-23T00:36:38.385Z,0
2018-01-23T00:37:48.090Z,0
2018-01-23T00:38:58.057Z,0
2018-01-23T00:40:07.233Z,0
2018-01-23T00:41:16.937Z,0
2018-01-23T00:42:26.642Z,0
2018-01-23T00:43:36.610Z,0
2018-01-23T00:44:46.049Z,0
2018-01-23T00:45:56.016Z,0
2018-01-23T00:47:05.985Z,0
2018-01-23T00:48:15.951Z,0
2018-01-23T00:49:25.919Z,0
2018-01-23T00:50:35.891Z,0
2018-01-23T00:51:45.861Z,0
2018-01-23T00:52:55.568Z,0
2018-01-23T00:54:05.273Z,0
2018-01-23T00:55:14.976Z,0
2018-01-23T00:56:24.684Z,0
2018-01-23T00:57:34.653Z,0
2018-01-23T00:58:44.356Z,0
2018-01-23T00:59:54.323Z,0
2018-01-23T01:01:04.034Z,0
2018-01-23T01:02:13.740Z,0
2018-01-23T01:03:23.714Z,0
2018-01-23T01:04:33.685Z,0
2018-01-23T01:05:43.394Z,0
2018-01-23T01:06:53.101Z,0
2018-01-23T01:08:03.069Z,0
2018-01-23T01:09:11.979Z,0
2018-01-23T01:10:21.422Z,0
2018-01-23T01:11:31.392Z,0
2018-01-23T01:12:41.381Z,0
2018-01-23T01:13:51.357Z,0
2018-01-23T01:15:01.061Z,0
2018-01-23T01:16:11.028Z,0
2018-01-23T01:17:20.999Z,0
2018-01-23T01:18:30.975Z,0
2018-01-23T01:19:40.680Z,0
2018-01-23T01:20:50.388Z,0
2018-01-23T01:21:59.841Z,0
2018-01-23T01:23:09.543Z,0
2018-01-23T01:24:19.253Z,0
2018-01-23T01:25:29.223Z,0
2018-01-23T01:26:38.935Z,0
2018-01-23T01:27:48.654Z,0
2018-01-23T01:28:58.370Z,0
2018-01-23T01:30:08.094Z,0
2018-01-23T01:31:17.807Z,0
2018-01-23T01:32:27.794Z,0
2018-01-23T01:33:37.783Z,0
2018-01-23T01:34:47.498Z,0
2018-01-23T01:35:57.217Z,0
2018-01-23T01:37:06.935Z,0
2018-01-23T01:38:16.920Z,0
2018-01-23T01:39:26.634Z,0
2018-01-23T01:40:36.610Z,0
2018-01-23T01:41:46.588Z,0
2018-01-23T01:42:56.302Z,0
2018-01-23T01:44:06.282Z,0
2018-01-23T01:45:15.782Z,0
2018-01-23T01:46:25.814Z,0
2018-01-23T01:47:35.794Z,0
2018-01-23T01:48:45.243Z,0
2018-01-23T01:49:54.956Z,0
2018-01-23T01:51:04.406Z,0
2018-01-23T01:52:13.859Z,0
2018-01-23T01:53:23.839Z,0
2018-01-23T01:54:33.826Z,0
2018-01-23T01:55:43.805Z,0
2018-01-23T01:56:53.518Z,0
2018-01-23T01:58:02.973Z,0
2018-01-23T01:59:12.693Z,0
2018-01-23T02:00:22.406Z,0
2018-01-23T02:01:32.389Z,0
2018-01-23T02:02:42.102Z,0
2018-01-23T02:03:51.916Z,0
2018-01-23T02:05:01.898Z,0
2018-01-23T02:06:11.887Z,0
2018-01-23T02:07:21.867Z,0
2018-01-23T02:08:31.582Z,0
2018-01-23T02:09:41.295Z,0
2018-01-23T02:10:51.326Z,0
2018-01-23T02:12:01.312Z,0
2018-01-23T02:13:11.293Z,0
2018-01-23T02:14:21.278Z,0
2018-01-23T02:15:31.256Z,0
2018-01-23T02:16:41.243Z,0
2018-01-23T02:17:50.956Z,0
2018-01-23T02:19:00.939Z,0
2018-01-23T02:20:10.393Z,0
2018-01-23T02:21:20.105Z,0
2018-01-23T02:22:29.825Z,0
2018-01-23T02:23:39.543Z,0
2018-01-23T02:24:49.256Z,0
2018-01-23T02:25:58.974Z,0
2018-01-23T02:27:08.694Z,0
2018-01-23T02:28:18.687Z,0
2018-01-23T02:29:28.665Z,0
2018-01-23T02:30:38.710Z,0
2018-01-23T02:31:48.695Z,0
2018-01-23T02:32:58.153Z,0
2018-01-23T02:34:07.877Z,0
2018-01-23T02:35:17.342Z,0
2018-01-23T02:36:27.343Z,0
2018-01-23T02:37:37.381Z,0
2018-01-23T02:38:47.414Z,0
2018-01-23T02:39:57.398Z,0
2018-01-23T02:41:06.581Z,0
2018-01-23T02:42:16.577Z,0
2018-01-23T02:43:26.027Z,0
2018-01-23T02:44:36.009Z,0
2018-01-23T02:45:45.724Z,0
2018-01-23T02:46:55.441Z,0
2018-01-23T02:48:05.156Z,0
2018-01-23T02:49:15.144Z,0
2018-01-23T02:50:24.868Z,0
2018-01-23T02:51:34.859Z,0
2018-01-23T02:52:44.847Z,0
2018-01-23T02:53:54.305Z,0
2018-01-23T02:55:04.291Z,0
2018-01-23T02:56:14.016Z,0
2018-01-23T02:57:24.000Z,0
2018-01-23T02:58:33.986Z,0
2018-01-23T02:59:43.968Z,0
2018-01-23T03:00:53.680Z,0
2018-01-23T03:02:03.443Z,0
2018-01-23T03:03:12.897Z,0
2018-01-23T03:04:22.880Z,0
2018-01-23T03:05:32.336Z,0
2018-01-23T03:06:42.336Z,0
2018-01-23T03:07:52.315Z,0
2018-01-23T03:09:02.029Z,0
2018-01-23T03:10:11.767Z,0
2018-01-23T03:11:21.744Z,0
2018-01-23T03:12:31.725Z,0
2018-01-23T03:13:41.860Z,0
2018-01-23T03:14:51.577Z,0
2018-01-23T03:16:01.560Z,0
2018-01-23T03:17:11.542Z,0
2018-01-23T03:18:21.256Z,0
2018-01-23T03:19:31.235Z,0
2018-01-23T03:20:41.212Z,0
2018-01-23T03:21:51.199Z,0
2018-01-23T03:23:00.648Z,0
2018-01-23T03:24:10.628Z,0
2018-01-23T03:25:20.343Z,0
2018-01-23T03:26:30.321Z,0
2018-01-23T03:27:40.035Z,0
2018-01-23T03:28:50.015Z,0
2018-01-23T03:29:59.996Z,0
2018-01-23T03:31:10.013Z,0
2018-01-23T03:32:19.732Z,0
2018-01-23T03:33:29.448Z,0
2018-01-23T03:34:39.163Z,0
2018-01-23T03:35:48.880Z,0
2018-01-23T03:36:58.329Z,0
2018-01-23T03:38:07.779Z,0
2018-01-23T03:39:17.500Z,0
2018-01-23T03:40:27.220Z,0
2018-01-23T03:41:37.207Z,0
2018-01-23T03:42:47.187Z,0
2018-01-23T03:43:56.903Z,0
2018-01-23T03:45:06.618Z,0
2018-01-23T03:46:16.333Z,0
2018-01-23T03:47:26.067Z,0
2018-01-23T03:48:36.149Z,0
2018-01-23T03:49:45.624Z,0
2018-01-23T03:50:55.605Z,0
2018-01-23T03:52:04.790Z,0
2018-01-23T03:53:14.770Z,0
2018-01-23T03:54:24.492Z,0
2018-01-23T03:55:34.476Z,0
2018-01-23T03:56:44.503Z,0
2018-01-23T03:57:54.219Z,0
2018-01-23T03:59:04.197Z,0
2018-01-23T04:04:31.098Z,0
2018-01-23T04:05:41.181Z,0
2018-01-23T04:06:50.905Z,0
2018-01-23T04:08:00.890Z,0
2018-01-23T04:09:10.609Z,0
2018-01-23T04:10:20.594Z,0
2018-01-23T04:11:30.636Z,0
2018-01-23T04:12:40.615Z,0
2018-01-23T04:13:50.065Z,0
2018-01-23T04:14:59.788Z,0
2018-01-23T04:16:09.506Z,0
2018-01-23T04:17:19.223Z,0
2018-01-23T04:18:29.213Z,0
2018-01-23T04:19:39.194Z,0
2018-01-23T04:20:48.913Z,0
2018-01-23T04:21:58.629Z,0
2018-01-23T04:23:08.904Z,0
2018-01-23T04:24:18.888Z,0
2018-01-23T04:25:28.338Z,0
2018-01-23T04:26:38.055Z,0
2018-01-23T04:27:47.507Z,0
2018-01-23T04:28:56.973Z,0
2018-01-23T04:30:05.883Z,0
2018-01-23T04:31:15.869Z,0
2018-01-23T04:32:25.585Z,0
2018-01-23T04:33:35.585Z,0
2018-01-23T04:34:45.579Z,0
2018-01-23T04:35:55.608Z,0
2018-01-23T04:37:04.802Z,0
2018-01-23T04:38:14.518Z,0
2018-01-23T04:39:24.496Z,0
2018-01-23T04:40:41.068Z,0
2018-01-23T04:41:50.521Z,0
2018-01-23T04:43:00.502Z,0
2018-01-23T04:44:09.693Z,0
2018-01-23T04:45:19.717Z,0
2018-01-23T04:46:29.748Z,0
2018-01-23T04:47:39.730Z,0
2018-01-23T04:48:49.710Z,0
2018-01-23T04:49:59.693Z,0
2018-01-23T04:51:09.143Z,0
2018-01-23T04:52:18.910Z,0
2018-01-23T04:53:28.898Z,0
2018-01-23T04:54:38.645Z,0
2018-01-23T04:55:48.625Z,0
2018-01-23T04:56:58.081Z,0
2018-01-23T04:58:07.901Z,0
2018-01-23T04:59:17.616Z,0
2018-01-23T05:00:27.335Z,0
2018-01-23T05:01:37.317Z,0
2018-01-23T05:02:47.302Z,0
2018-01-23T05:03:57.068Z,0
2018-01-23T05:05:06.782Z,0
2018-01-23T05:06:16.234Z,0
2018-01-23T05:07:26.215Z,0
2018-01-23T05:08:36.198Z,0
2018-01-23T05:09:46.187Z,0
2018-01-23T05:10:56.173Z,0
2018-01-23T05:12:06.158Z,0
2018-01-23T05:13:16.147Z,0
2018-01-23T05:14:26.126Z,0
2018-01-23T05:15:36.117Z,0
2018-01-23T05:16:45.563Z,0
2018-01-23T05:17:55.547Z,0
2018-01-23T05:19:05.002Z,0
2018-01-23T05:20:14.991Z,0
2018-01-23T05:21:24.972Z,0
2018-01-23T05:22:34.954Z,0
2018-01-23T05:23:44.411Z,0
2018-01-23T05:24:54.126Z,0
2018-01-23T05:26:03.846Z,0
2018-01-23T05:27:13.561Z,0
2018-01-23T05:28:23.016Z,0
2018-01-23T05:29:33.012Z,0
2018-01-23T05:30:42.732Z,0
2018-01-23T05:31:52.714Z,0
2018-01-23T05:33:02.429Z,0
2018-01-23T05:34:12.411Z,0
2018-01-23T05:35:22.127Z,0
2018-01-23T05:36:31.898Z,0
2018-01-23T05:37:41.617Z,0
2018-01-23T05:38:51.597Z,0
2018-01-23T05:40:01.585Z,0
2018-01-23T05:41:11.571Z,0
2018-01-23T05:42:21.548Z,0
2018-01-23T05:43:31.263Z,0
2018-01-23T05:44:41.245Z,0
2018-01-23T05:45:51.227Z,0
2018-01-23T05:47:00.949Z,0
2018-01-23T05:48:10.933Z,0
2018-01-23T05:49:20.915Z,0
2018-01-23T05:50:30.365Z,0
2018-01-23T05:51:40.347Z,0
2018-01-23T05:52:50.328Z,0
2018-01-23T05:54:00.312Z,0
2018-01-23T05:55:10.029Z,0
2018-01-23T05:56:19.758Z,0
2018-01-23T05:57:29.750Z,0
2018-01-23T05:58:39.730Z,0
2018-01-23T05:59:49.714Z,0
2018-01-23T06:00:59.435Z,0
2018-01-23T06:02:08.644Z,0
2018-01-23T06:03:18.625Z,0
2018-01-23T06:04:28.077Z,0
2018-01-23T06:05:38.058Z,0
2018-01-23T06:06:48.094Z,0
2018-01-23T06:07:58.075Z,0
2018-01-23T06:09:08.061Z,0
2018-01-23T06:10:18.044Z,0
2018-01-23T06:11:28.026Z,0
2018-01-23T06:12:38.007Z,0
2018-01-23T06:13:47.724Z,0
2018-01-23T06:14:57.445Z,0
2018-01-23T06:16:06.627Z,0
2018-01-23T06:17:16.346Z,0
2018-01-23T06:18:26.329Z,0
2018-01-23T06:19:36.320Z,0
2018-01-23T06:20:46.300Z,0
2018-01-23T06:21:56.287Z,0
2018-01-23T06:23:06.008Z,0
2018-01-23T06:24:15.991Z,0
2018-01-23T06:25:26.026Z,0
2018-01-23T06:26:36.017Z,0
2018-01-23T06:27:46.026Z,0
2018-01-23T06:28:55.741Z,0
2018-01-23T06:30:05.464Z,0
2018-01-23T06:31:15.181Z,0
2018-01-23T06:32:25.212Z,0
2018-01-23T06:33:35.199Z,0
2018-01-23T06:34:44.915Z,0
2018-01-23T06:35:54.638Z,0
2018-01-23T06:37:04.357Z,0
2018-01-23T06:38:13.810Z,0
2018-01-23T06:39:23.532Z,0
2018-01-23T06:40:33.529Z,0
2018-01-23T06:41:43.517Z,0
2018-01-23T06:42:53.498Z,0
2018-01-23T06:44:03.220Z,0
2018-01-23T06:45:12.943Z,0
2018-01-23T06:46:22.670Z,0
2018-01-23T06:47:32.666Z,0
2018-01-23T06:48:42.387Z,0
2018-01-23T06:49:52.378Z,0
2018-01-23T06:51:02.097Z,0
2018-01-23T06:52:11.824Z,0
2018-01-23T06:53:21.546Z,0
2018-01-23T06:54:31.364Z,0
2018-01-23T06:55:41.078Z,0
2018-01-23T06:56:51.057Z,0
2018-01-23T06:58:00.774Z,0
2018-01-23T06:59:10.760Z,0
2018-01-23T07:00:20.816Z,0
2018-01-23T07:01:30.268Z,0
2018-01-23T07:02:39.993Z,0
2018-01-23T07:03:49.974Z,0
2018-01-23T07:04:59.955Z,0
2018-01-23T07:06:09.675Z,0
2018-01-23T07:07:19.396Z,0
2018-01-23T07:08:29.143Z,0
2018-01-23T07:09:39.131Z,0
2018-01-23T07:10:49.119Z,4
2018-01-23T07:11:58.842Z,4
2018-01-23T07:13:08.565Z,4
2018-01-23T07:14:18.290Z,0
2018-01-23T07:15:28.024Z,0
2018-01-23T07:16:37.742Z,4
2018-01-23T07:17:47.733Z,4
2018-01-23T07:18:57.459Z,4
2018-01-23T07:20:07.187Z,4
2018-01-23T07:21:16.914Z,4
2018-01-23T07:22:26.911Z,8
2018-01-23T07:23:37.047Z,8
2018-01-23T07:24:46.773Z,8
2018-01-23T07:25:56.772Z,8
2018-01-23T07:27:06.762Z,8
2018-01-23T07:28:16.221Z,12
2018-01-23T07:29:25.998Z,12
2018-01-23T07:30:35.998Z,16
2018-01-23T07:31:45.728Z,16
2018-01-23T07:32:55.756Z,16
2018-01-23T07:34:05.749Z,20
2018-01-23T07:35:15.575Z,20
2018-01-23T07:36:25.574Z,24
2018-01-23T07:37:35.568Z,28
2018-01-23T07:38:45.295Z,32
2018-01-23T07:39:55.289Z,32
2018-01-23T07:41:05.063Z,36
2018-01-23T07:42:14.795Z,40
2018-01-23T07:43:24.523Z,44
2018-01-23T07:44:34.311Z,44
2018-01-23T07:45:44.316Z,52
2018-01-23T07:46:54.316Z,56
2018-01-23T07:48:04.306Z,64
2018-01-23T07:49:14.040Z,68
2018-01-23T07:50:24.033Z,72
2018-01-23T07:51:33.766Z,76
2018-01-23T07:52:43.497Z,84
2018-01-23T07:53:53.498Z,92
2018-01-23T07:55:03.540Z,100
2018-01-23T07:56:13.533Z,104
2018-01-23T07:57:23.257Z,108
2018-01-23T07:58:32.985Z,116
2018-01-23T07:59:42.710Z,128
2018-01-23T08:00:52.691Z,132
2018-01-23T08:02:02.414Z,144
2018-01-23T08:03:12.410Z,156
2018-01-23T08:04:22.389Z,168
2018-01-23T08:05:32.101Z,176
2018-01-23T08:06:42.071Z,188
2018-01-23T08:07:52.045Z,200
2018-01-23T08:09:01.758Z,212
2018-01-23T08:10:11.469Z,224
2018-01-23T08:11:21.181Z,228
2018-01-23T08:12:31.155Z,232
2018-01-23T08:13:40.599Z,244
2018-01-23T08:14:50.316Z,248
2018-01-23T08:16:00.346Z,256
2018-01-23T08:17:10.066Z,268
2018-01-23T08:18:20.038Z,276
2018-01-23T08:19:29.756Z,288
2018-01-23T08:20:39.839Z,300
2018-01-23T08:21:49.604Z,320
2018-01-23T08:22:59.581Z,336
2018-01-23T08:24:09.295Z,352
2018-01-23T08:25:19.015Z,364
2018-01-23T08:26:28.723Z,380
2018-01-23T08:27:38.793Z,388
2018-01-23T08:28:48.762Z,404
2018-01-23T08:29:58.208Z,416
2018-01-23T08:31:07.659Z,424
2018-01-23T08:32:17.639Z,436
2018-01-23T08:33:27.613Z,448
2018-01-23T08:34:37.684Z,464
2018-01-23T08:35:47.692Z,480
2018-01-23T08:36:57.672Z,504
2018-01-23T08:38:07.127Z,548
2018-01-23T08:39:16.834Z,560
2018-01-23T08:40:26.806Z,584
2018-01-23T08:41:36.779Z,608
2018-01-23T08:42:46.491Z,624
2018-01-23T08:43:56.200Z,648
2018-01-23T08:45:05.668Z,672
2018-01-23T08:46:15.683Z,684
2018-01-23T08:47:25.395Z,704
2018-01-23T08:48:35.375Z,716
2018-01-23T08:49:45.086Z,736
2018-01-23T08:50:55.063Z,752
2018-01-23T08:52:04.510Z,784
2018-01-23T08:53:14.485Z,800
2018-01-23T08:54:24.204Z,832
2018-01-23T08:55:33.915Z,864
2018-01-23T08:56:43.362Z,908
2018-01-23T08:57:53.397Z,952
2018-01-23T08:59:03.371Z,996
2018-01-23T09:00:13.366Z,1036
2018-01-23T09:01:23.077Z,1096
2018-01-23T09:02:33.105Z,1156
2018-01-23T09:03:42.815Z,1204
2018-01-23T09:04:52.794Z,1228
2018-01-23T09:06:02.771Z,1264
2018-01-23T09:07:12.480Z,1292
2018-01-23T09:08:21.926Z,1332
2018-01-23T09:09:31.376Z,1368
2018-01-23T09:10:41.350Z,1404
2018-01-23T09:11:51.389Z,1428
2018-01-23T09:13:01.361Z,1452
2018-01-23T09:14:11.912Z,1472
2018-01-23T09:15:21.624Z,1472
2018-01-23T09:16:31.336Z,1516
2018-01-23T09:17:40.788Z,1536
2018-01-23T09:18:50.507Z,1544
2018-01-23T09:20:00.054Z,1552
2018-01-23T09:21:08.971Z,1576
2018-01-23T09:22:18.945Z,1592
2018-01-23T09:23:28.941Z,1600
2018-01-23T09:24:38.943Z,1608
2018-01-23T09:25:48.649Z,1628
2018-01-23T09:26:58.358Z,1632
2018-01-23T09:28:07.810Z,1656
2018-01-23T09:29:17.257Z,1700
2018-01-23T09:30:26.978Z,1744
2018-01-23T09:31:36.689Z,1788
2018-01-23T09:32:46.408Z,1824
2018-01-23T09:33:56.122Z,1844
2018-01-23T09:35:05.837Z,1872
2018-01-23T09:36:15.810Z,1884
2018-01-23T09:37:25.256Z,1896
2018-01-23T09:38:35.234Z,1904
2018-01-23T09:39:44.946Z,1920
2018-01-23T09:40:54.659Z,1924
2018-01-23T09:42:04.631Z,1932
2018-01-23T09:43:14.658Z,1940
2018-01-23T09:44:24.632Z,1940
2018-01-23T09:45:34.353Z,1932
2018-01-23T09:46:43.803Z,1920
2018-01-23T09:47:53.800Z,1900
2018-01-23T09:49:03.778Z,1892
2018-01-23T09:50:13.497Z,1900
2018-01-23T09:51:23.213Z,1900
2018-01-23T09:52:32.924Z,1908
2018-01-23T09:53:42.635Z,1916
2018-01-23T09:54:52.715Z,1932
2018-01-23T09:56:02.692Z,1956
2018-01-23T09:57:12.672Z,1976
2018-01-23T09:58:22.434Z,2004
2018-01-23T09:59:32.613Z,2040
2018-01-23T10:00:42.326Z,2080
2018-01-23T10:01:52.302Z,2116
2018-01-23T10:03:02.539Z,2148
2018-01-23T10:04:12.594Z,2172
2018-01-23T10:05:22.312Z,2208
2018-01-23T10:06:32.131Z,2244
2018-01-23T10:07:42.108Z,2296
2018-01-23T10:08:51.821Z,2344
2018-01-23T10:10:01.804Z,2384
2018-01-23T10:11:11.782Z,2436
2018-01-23T10:12:21.499Z,2492
2018-01-23T10:13:31.211Z,2540
2018-01-23T10:14:40.922Z,2596
2018-01-23T10:15:50.898Z,2644
2018-01-23T10:17:00.875Z,2680
2018-01-23T10:18:11.340Z,2704
2018-01-23T10:19:21.050Z,2720
2018-01-23T10:20:31.029Z,2716
2018-01-23T10:21:40.747Z,2736
2018-01-23T10:22:50.462Z,2752
2018-01-23T10:24:00.536Z,2760
2018-01-23T10:25:10.256Z,2756
2018-01-23T10:26:19.972Z,2748
2018-01-23T10:27:29.949Z,2720
2018-01-23T10:28:39.932Z,2692
2018-01-23T10:29:49.959Z,2648
2018-01-23T10:30:59.936Z,2636
2018-01-23T10:32:09.658Z,2636
2018-01-23T10:33:19.638Z,2672
2018-01-23T10:34:29.348Z,2720
2018-01-23T10:35:39.431Z,2800
2018-01-23T10:36:49.427Z,2884
2018-01-23T10:37:58.868Z,2972
2018-01-23T10:39:08.316Z,3048
2018-01-23T10:40:18.299Z,3112
2018-01-23T10:41:28.276Z,3156
2018-01-23T10:42:37.994Z,3196
2018-01-23T10:43:47.970Z,3268
2018-01-23T10:44:57.991Z,3276
2018-01-23T10:46:07.709Z,3312
2018-01-23T10:47:16.895Z,3332
2018-01-23T10:48:26.607Z,3332
2018-01-23T10:49:36.590Z,3324
2018-01-23T10:50:46.306Z,3324
2018-01-23T10:51:55.753Z,3352
2018-01-23T10:53:05.465Z,3408
2018-01-23T10:54:15.180Z,3424
2018-01-23T10:55:24.894Z,3484
2018-01-23T10:56:34.615Z,3516
2018-01-23T10:57:44.331Z,3552
2018-01-23T10:58:53.563Z,3592
2018-01-23T11:00:02.754Z,3668
2018-01-23T11:01:12.736Z,3696
2018-01-23T11:02:22.710Z,3712
2018-01-23T11:03:32.428Z,3676
2018-01-23T11:04:42.408Z,3672
2018-01-23T11:05:52.125Z,3676
2018-01-23T11:07:01.844Z,3672
2018-01-23T11:08:11.556Z,3732
2018-01-23T11:09:21.546Z,3728
2018-01-23T11:10:31.527Z,3740
2018-01-23T11:11:41.243Z,3776
2018-01-23T11:12:51.221Z,3832
2018-01-23T11:14:01.204Z,3968
2018-01-23T11:15:11.180Z,4052
2018-01-23T11:16:20.628Z,4176
2018-01-23T11:17:30.609Z,4232
2018-01-23T11:18:40.594Z,4148
2018-01-23T11:19:50.579Z,4004
2018-01-23T11:21:00.031Z,3884
2018-01-23T11:22:09.855Z,3744
2018-01-23T11:23:19.842Z,3660
2018-01-23T11:24:29.565Z,3544
2018-01-23T11:25:39.304Z,3456
2018-01-23T11:26:49.334Z,3416
2018-01-23T11:27:59.095Z,3408
2018-01-23T11:29:08.808Z,3408
2018-01-23T11:30:18.787Z,3352
2018-01-23T11:31:28.499Z,3384
2018-01-23T11:32:38.474Z,3348
2018-01-23T11:33:48.471Z,3392
2018-01-23T11:34:58.184Z,3404
2018-01-23T11:36:07.373Z,3412
2018-01-23T11:37:17.350Z,3380
2018-01-23T11:38:27.066Z,3448
2018-01-23T11:39:36.568Z,3484
2018-01-23T11:40:46.019Z,3492
2018-01-23T11:41:55.997Z,3508
2018-01-23T11:43:05.973Z,3472
2018-01-23T11:44:15.422Z,3512
2018-01-23T11:45:25.396Z,3480
2018-01-23T11:46:35.375Z,3448
2018-01-23T11:47:45.403Z,3408
2018-01-23T11:48:55.376Z,3328
2018-01-23T11:50:04.877Z,3320
2018-01-23T11:51:14.599Z,3288
2018-01-23T11:52:24.580Z,3224
2018-01-23T11:53:34.559Z,3188
2018-01-23T11:54:44.546Z,3108
2018-01-23T11:55:54.261Z,3028
2018-01-23T11:57:04.387Z,2964
2018-01-23T11:58:14.360Z,2892
2018-01-23T11:59:24.340Z,2884
2018-01-23T12:00:34.065Z,2900
2018-01-23T12:01:43.779Z,2868
2018-01-23T12:02:53.755Z,2852
2018-01-23T12:04:03.470Z,2876
2018-01-23T12:05:13.182Z,2928
2018-01-23T12:06:23.158Z,2996
2018-01-23T12:07:33.133Z,3036
2018-01-23T12:08:43.110Z,3036
2018-01-23T12:09:53.089Z,3072
2018-01-23T12:11:03.071Z,3088
2018-01-23T12:12:12.522Z,3060
2018-01-23T12:13:21.708Z,3112
2018-01-23T12:14:31.736Z,3212
2018-01-23T12:15:41.721Z,3128
2018-01-23T12:16:51.433Z,3272
2018-01-23T12:18:01.413Z,3296
2018-01-23T12:19:11.406Z,3316
2018-01-23T12:20:21.123Z,3328
2018-01-23T12:21:31.105Z,3320
2018-01-23T12:22:41.080Z,3324
2018-01-23T12:23:50.794Z,3328
2018-01-23T12:25:00.772Z,3300
2018-01-23T12:26:10.283Z,3268
2018-01-23T12:27:20.265Z,3272
2018-01-23T12:28:29.707Z,3276
2018-01-23T12:29:39.685Z,3324
2018-01-23T12:30:49.660Z,3384
2018-01-23T12:31:59.371Z,3464
2018-01-23T12:33:08.826Z,3536
2018-01-23T12:34:18.802Z,3584
2018-01-23T12:35:28.528Z,3552
2018-01-23T12:36:38.240Z,3500
2018-01-23T12:37:47.688Z,3416
2018-01-23T12:38:57.405Z,3336
2018-01-23T12:40:06.588Z,3248
2018-01-23T12:41:16.325Z,3164
2018-01-23T12:42:26.028Z,3032
2018-01-23T12:43:35.940Z,2916
2018-01-23T12:44:45.918Z,2848
2018-01-23T12:45:55.903Z,2836
2018-01-23T12:47:05.618Z,2872
2018-01-23T12:48:15.596Z,2944
2018-01-23T12:49:25.311Z,3000
2018-01-23T12:50:35.030Z,3064
2018-01-23T12:51:44.752Z,3092
2018-01-23T12:52:54.729Z,3128
2018-01-23T12:54:04.443Z,3116
2018-01-23T12:55:14.152Z,3096
2018-01-23T12:56:23.870Z,3068
2018-01-23T12:57:33.320Z,3036
2018-01-23T12:58:43.040Z,2988
2018-01-23T12:59:52.487Z,2972
2018-01-23T13:01:02.197Z,2840
2018-01-23T13:02:12.178Z,2808
2018-01-23T13:03:21.887Z,2788
2018-01-23T13:04:31.604Z,2604
2018-01-23T13:05:41.583Z,2524
2018-01-23T13:06:51.298Z,2496
2018-01-23T13:08:01.016Z,2416
2018-01-23T13:09:10.475Z,2420
2018-01-23T13:10:20.456Z,2392
2018-01-23T13:11:30.168Z,2340
2018-01-23T13:12:39.883Z,2212
2018-01-23T13:13:49.623Z,2140
2018-01-23T13:14:59.341Z,2076
2018-01-23T13:16:09.054Z,2016
2018-01-23T13:17:18.783Z,1980
2018-01-23T13:18:28.510Z,1952
2018-01-23T13:19:38.501Z,1900
2018-01-23T13:20:48.221Z,1856
2018-01-23T13:21:58.201Z,1824
2018-01-23T13:23:07.912Z,1804
2018-01-23T13:24:17.889Z,1764
2018-01-23T13:25:27.611Z,1704
2018-01-23T13:26:37.596Z,1640
2018-01-23T13:27:47.569Z,1576
2018-01-23T13:28:57.027Z,1520
2018-01-23T13:30:06.740Z,1464
2018-01-23T13:31:16.194Z,1404
2018-01-23T13:32:26.179Z,1340
2018-01-23T13:33:35.893Z,1292
2018-01-23T13:34:45.344Z,1252
2018-01-23T13:35:58.411Z,1224
2018-01-23T13:37:08.281Z,1180
2018-01-23T13:38:17.997Z,1168
2018-01-23T13:39:27.980Z,1148
2018-01-23T13:40:37.693Z,1120
2018-01-23T13:41:47.670Z,1088
2018-01-23T13:42:57.648Z,1044
2018-01-23T13:44:07.634Z,1008
2018-01-23T13:45:17.348Z,972
2018-01-23T13:46:27.067Z,932
2018-01-23T13:47:37.096Z,896
2018-01-23T13:48:46.820Z,864
2018-01-23T13:49:56.273Z,848
2018-01-23T13:51:05.721Z,840
2018-01-23T13:52:15.171Z,832
2018-01-23T13:53:25.145Z,816
2018-01-23T13:54:34.601Z,808
2018-01-23T13:55:44.580Z,800
2018-01-23T13:56:54.292Z,796
2018-01-23T13:58:04.008Z,792
2018-01-23T13:59:13.718Z,776
2018-01-23T14:00:23.711Z,760
2018-01-23T14:01:33.691Z,732
2018-01-23T14:02:43.407Z,716
2018-01-23T14:03:53.384Z,704
2018-01-23T14:05:03.158Z,688
2018-01-23T14:06:12.614Z,672
2018-01-23T14:07:22.590Z,656
2018-01-23T14:08:32.563Z,644
2018-01-23T14:09:42.543Z,616
2018-01-23T14:10:52.559Z,576
2018-01-23T14:12:02.276Z,540
2018-01-23T14:13:11.988Z,504
2018-01-23T14:14:21.708Z,484
2018-01-23T14:15:31.687Z,464
2018-01-23T14:16:41.768Z,440
2018-01-23T14:17:51.744Z,416
2018-01-23T14:19:01.192Z,396
2018-01-23T14:20:11.170Z,380
2018-01-23T14:21:21.144Z,372
2018-01-23T14:22:31.120Z,364
2018-01-23T14:23:40.834Z,356
2018-01-23T14:24:50.547Z,340
2018-01-23T14:26:00.258Z,328
2018-01-23T14:27:09.707Z,316
2018-01-23T14:28:19.841Z,304
2018-01-23T14:29:29.290Z,288
2018-01-23T14:30:39.269Z,272
2018-01-23T14:31:48.722Z,252
2018-01-23T14:32:58.696Z,236
2018-01-23T14:34:07.666Z,220
2018-01-23T14:35:17.655Z,208
2018-01-23T14:36:27.421Z,200
2018-01-23T14:37:37.397Z,192
2018-01-23T14:38:47.120Z,188
2018-01-23T14:39:56.840Z,184
2018-01-23T14:41:06.824Z,180
2018-01-23T14:42:16.276Z,168
2018-01-23T14:43:25.462Z,160
2018-01-23T14:44:35.178Z,148
2018-01-23T14:45:45.155Z,140
2018-01-23T14:46:55.129Z,136
2018-01-23T14:48:04.838Z,132
2018-01-23T14:49:14.550Z,124
2018-01-23T14:50:24.263Z,116
2018-01-23T14:51:33.978Z,108
2018-01-23T14:52:43.689Z,100
2018-01-23T14:53:53.135Z,92
2018-01-23T14:55:02.895Z,84
2018-01-23T14:56:12.613Z,80
2018-01-23T14:57:22.641Z,76
2018-01-23T14:58:32.101Z,72
2018-01-23T14:59:41.818Z,68
2018-01-23T15:00:51.266Z,64
2018-01-23T15:02:00.984Z,60
2018-01-23T15:03:11.015Z,56
2018-01-23T15:04:20.995Z,52
2018-01-23T15:05:30.972Z,52
2018-01-23T15:06:40.685Z,48
2018-01-23T15:07:50.418Z,44
2018-01-23T15:09:00.183Z,40
2018-01-23T15:10:09.906Z,36
2018-01-23T15:11:19.627Z,36
2018-01-23T15:12:29.341Z,32
2018-01-23T15:13:39.064Z,32
2018-01-23T15:14:49.043Z,28
2018-01-23T15:15:59.016Z,28
2018-01-23T15:17:08.466Z,28
2018-01-23T15:18:18.440Z,24
2018-01-23T15:19:27.890Z,24
2018-01-23T15:20:38.017Z,20
2018-01-23T15:21:48.015Z,20
2018-01-23T15:22:57.727Z,16
2018-01-23T15:24:07.436Z,16
2018-01-23T15:25:17.145Z,16
2018-01-23T15:26:26.856Z,12
2018-01-23T15:27:36.831Z,12
2018-01-23T15:28:46.807Z,8
2018-01-23T15:29:56.784Z,8
2018-01-23T15:31:06.496Z,4
2018-01-23T15:32:16.208Z,8
2018-01-23T15:33:26.187Z,4
2018-01-23T15:34:36.164Z,4
2018-01-23T15:35:46.145Z,4
2018-01-23T15:36:56.127Z,4
2018-01-23T15:38:06.104Z,4
2018-01-23T15:39:15.815Z,4
2018-01-23T15:40:25.802Z,4
2018-01-23T15:41:35.788Z,0
2018-01-23T15:42:45.764Z,0
2018-01-23T15:43:54.945Z,0
2018-01-23T15:45:04.924Z,0
2018-01-23T15:46:14.641Z,0
2018-01-23T15:47:24.616Z,0
2018-01-23T15:48:34.327Z,0
2018-01-23T15:49:44.308Z,0
2018-01-23T15:50:54.283Z,0
2018-01-23T15:52:04.002Z,0
2018-01-23T15:53:13.714Z,0
2018-01-23T15:54:23.692Z,0
2018-01-23T15:55:33.672Z,0
2018-01-23T15:56:43.656Z,0
2018-01-23T15:57:53.633Z,0
2018-01-23T15:59:03.609Z,0
2018-01-23T16:00:13.063Z,0
2018-01-23T16:01:22.775Z,0
2018-01-23T16:02:32.506Z,0
2018-01-23T16:03:42.480Z,0
2018-01-23T16:04:52.196Z,0
2018-01-23T16:06:02.175Z,0
2018-01-23T16:07:11.885Z,0
2018-01-23T16:08:21.597Z,0
2018-01-23T16:09:31.309Z,0
2018-01-23T16:10:41.285Z,0
2018-01-23T16:11:50.997Z,0
2018-01-23T16:13:01.030Z,0
2018-01-23T16:14:11.007Z,0
2018-01-23T16:15:20.983Z,0
2018-01-23T16:16:30.696Z,0
2018-01-23T16:17:40.410Z,0
2018-01-23T16:18:49.862Z,0
2018-01-23T16:19:59.043Z,0
2018-01-23T16:21:08.762Z,0
2018-01-23T16:22:18.739Z,0
2018-01-23T16:23:28.715Z,0
2018-01-23T16:24:38.693Z,0
2018-01-23T16:25:48.672Z,0
2018-01-23T16:26:58.693Z,0
2018-01-23T16:28:08.673Z,0
2018-01-23T16:29:18.648Z,0
2018-01-23T16:30:28.623Z,0
2018-01-23T16:31:38.599Z,0
2018-01-23T16:32:48.577Z,0